Greater Kankakee Airport
KIKK : rendu visible

Aérodrome :











RETROUVEZ-NOUS SUR...

 
LOGIN :

S'inscrire | Disclaimer

   EN    FR    IT 

 









Légende :    VFR   VFR Marginal   IFR   IFR Intensif   IFR Très Intensif
Visi : 
Plafond : 
>= 8 km
>= 3000ft
5 à 8 km
1000 à 3000 ft
1500m à 5 km
500 à 1000 ft
800 à 1500m
200 à 500 ft
< 800m
< 200 ft
Symboles :   Orages  Brouillard  Fortes neiges  Fortes précipitations  Vent > 20 kt






- Altitude de l'aérodrome : 630 ft


KIKK - Greater Kankakee

DERNIER METAR :
  • 162315Z AUTO 10006KT 10SM CLR 01/M02 A3027 RMK AO2 T00101022

METARs EXPIRÉS :
  • 162255Z AUTO 10006KT 10SM CLR 01/M02 A3028 RMK AO2 T00141022
  • 162235Z AUTO 10005KT 10SM CLR 03/M02 A3028 RMK AO2 T00251019
  • 162215Z AUTO 11007KT 10SM CLR 03/M02 A3028 RMK AO2 T00341017
  • 162155Z AUTO 11007KT 10SM CLR 04/M02 A3029 RMK AO2 T00411016
  • 162135Z AUTO 10007KT 10SM CLR 05/M01 A3030 RMK AO2 T00471015
  • 162115Z AUTO 10006KT 10SM CLR 05/M01 A3030 RMK AO2 T00511012
  • 162055Z AUTO 09006KT 10SM CLR 05/M01 A3030 RMK AO2 T00511011

TAF N/A



MET'MAP, la Météo Aéronautique d'un coup d'oeil ! - Copyright ORBIFLY Décembre 2007 - Disclaimer

ORBIFLY MET'MAP TEAM :

Programmation & Développement : Alexandra Zaïnal
Conception & Développement : Baudouin d'Aumeries
Co-Programmation & Développement : Marc-Olivier Méhu
Soutien technique & logistique : Manuel Goepfert

Contact : metmap@orbifly.com




SOURCES & CREDITS :

   NOAA       Earth
Advisory